Strona główna
METAR-TAF:

METAR-TAF

Lotnisko :

Ortonville Municipal Airport (Martinson Field)

Ortonville, Minnesota, Stany Zjednoczone

Szerokość geograficzna: 45-18-20N, Długość geograficzna: 096-25-28W, wysokość: 335 m

Aktualna obserwacja pogody

Raport powstał 24 minut temu, godzina 10:39 UTC
Wiatr 4 kt od północny zachód
Temperatura 19°C
Wilgotność 94%
Ciśnienie 1006 hPa
Widzialność: 16.1 km

METAR: KVVV 181039Z AUTO 31004KT 10SM 19/18 A2972 RMK AO2

czas: 06:03 (11:03 UTC)


TAF: brakujący

Obserwacja i prognoza pogody dla ponad 4000 lotnisk (raport METAR i TAF).

Dostępne stacje oznaczono żółtymi i czerwonymi punktami na mapie.

Najedź kursorem aby zobaczyć nazwę stacji.

Kliknij aby zobaczyć obserwacje i prognozy pogody.

Aby zmienić mapę: kliknij na zielony przycisk z czarnym krzyżykiem, aby powiększyć; na zielony przycisk z myślnikiem, aby pomniejszyć; na zielone strzałki, aby przejść do map sąsiednich.


METAR-TAF: